sensor_id;sensor_type;location;lat;lon;timestamp;temperature;humidity
25300;DHT22;13241;51.208;4.432;2022-07-25T00:00:23;25.60;96.60
25300;DHT22;13241;51.208;4.432;2022-07-25T00:02:50;25.70;96.80
25300;DHT22;13241;51.208;4.432;2022-07-25T00:05:17;25.70;96.80
25300;DHT22;13241;51.208;4.432;2022-07-25T00:07:44;25.60;97.00
25300;DHT22;13241;51.208;4.432;2022-07-25T00:10:11;25.50;97.10
25300;DHT22;13241;51.208;4.432;2022-07-25T00:12:38;25.50;97.20
25300;DHT22;13241;51.208;4.432;2022-07-25T00:15:05;25.50;97.40
25300;DHT22;13241;51.208;4.432;2022-07-25T00:17:32;25.50;97.40
25300;DHT22;13241;51.208;4.432;2022-07-25T00:19:59;25.50;97.50
25300;DHT22;13241;51.208;4.432;2022-07-25T00:22:26;25.40;97.50
25300;DHT22;13241;51.208;4.432;2022-07-25T00:24:53;25.40;97.60
25300;DHT22;13241;51.208;4.432;2022-07-25T00:27:20;25.30;97.70
25300;DHT22;13241;51.208;4.432;2022-07-25T00:29:47;25.30;97.90
25300;DHT22;13241;51.208;4.432;2022-07-25T00:32:14;25.20;98.10
25300;DHT22;13241;51.208;4.432;2022-07-25T00:34:41;25.10;98.30
25300;DHT22;13241;51.208;4.432;2022-07-25T00:37:08;25.00;98.60
25300;DHT22;13241;51.208;4.432;2022-07-25T00:39:35;24.90;99.30
25300;DHT22;13241;51.208;4.432;2022-07-25T00:42:02;24.80;99.10
25300;DHT22;13241;51.208;4.432;2022-07-25T00:44:31;24.80;99.40
25300;DHT22;13241;51.208;4.432;2022-07-25T00:46:59;24.70;99.50
25300;DHT22;13241;51.208;4.432;2022-07-25T00:49:26;24.80;99.80
25300;DHT22;13241;51.208;4.432;2022-07-25T00:51:53;24.60;99.90
25300;DHT22;13241;51.208;4.432;2022-07-25T00:54:20;24.70;99.90
25300;DHT22;13241;51.208;4.432;2022-07-25T00:56:49;24.60;99.90
25300;DHT22;13241;51.208;4.432;2022-07-25T00:59:16;24.60;99.90
25300;DHT22;13241;51.208;4.432;2022-07-25T01:01:44;24.50;99.90
25300;DHT22;13241;51.208;4.432;2022-07-25T01:04:14;24.50;99.90
25300;DHT22;13241;51.208;4.432;2022-07-25T01:06:42;24.40;99.90
25300;DHT22;13241;51.208;4.432;2022-07-25T01:09:09;24.40;99.90
25300;DHT22;13241;51.208;4.432;2022-07-25T01:11:35;24.60;99.90
25300;DHT22;13241;51.208;4.432;2022-07-25T01:14:03;24.40;99.90
25300;DHT22;13241;51.208;4.432;2022-07-25T01:16:30;24.50;99.90
25300;DHT22;13241;51.208;4.432;2022-07-25T01:18:57;24.40;99.90
25300;DHT22;13241;51.208;4.432;2022-07-25T01:21:24;24.40;99.90
25300;DHT22;13241;51.208;4.432;2022-07-25T01:23:52;24.20;99.90
25300;DHT22;13241;51.208;4.432;2022-07-25T01:26:19;24.30;99.90
25300;DHT22;13241;51.208;4.432;2022-07-25T01:28:46;24.10;99.90
25300;DHT22;13241;51.208;4.432;2022-07-25T01:31:13;24.20;99.90
25300;DHT22;13241;51.208;4.432;2022-07-25T01:33:40;24.20;99.90
25300;DHT22;13241;51.208;4.432;2022-07-25T01:36:07;24.20;99.90
25300;DHT22;13241;51.208;4.432;2022-07-25T01:38:33;24.20;99.90
25300;DHT22;13241;51.208;4.432;2022-07-25T01:41:00;24.30;99.90
25300;DHT22;13241;51.208;4.432;2022-07-25T01:43:27;24.20;99.90
25300;DHT22;13241;51.208;4.432;2022-07-25T01:45:54;24.20;99.90
25300;DHT22;13241;51.208;4.432;2022-07-25T01:48:21;24.20;99.90
25300;DHT22;13241;51.208;4.432;2022-07-25T01:50:50;24.20;99.90
25300;DHT22;13241;51.208;4.432;2022-07-25T01:53:18;24.20;99.90
25300;DHT22;13241;51.208;4.432;2022-07-25T01:55:45;24.20;99.90
25300;DHT22;13241;51.208;4.432;2022-07-25T01:58:12;24.20;99.90
25300;DHT22;13241;51.208;4.432;2022-07-25T02:00:40;24.10;99.90
25300;DHT22;13241;51.208;4.432;2022-07-25T02:03:07;24.10;99.90
25300;DHT22;13241;51.208;4.432;2022-07-25T02:05:53;24.10;99.90
25300;DHT22;13241;51.208;4.432;2022-07-25T02:08:21;24.20;99.90
25300;DHT22;13241;51.208;4.432;2022-07-25T02:10:49;24.00;99.90
25300;DHT22;13241;51.208;4.432;2022-07-25T02:13:16;24.00;99.90
25300;DHT22;13241;51.208;4.432;2022-07-25T02:15:43;24.10;99.90
25300;DHT22;13241;51.208;4.432;2022-07-25T02:18:09;24.10;99.90
25300;DHT22;13241;51.208;4.432;2022-07-25T02:20:36;24.10;99.90
25300;DHT22;13241;51.208;4.432;2022-07-25T02:23:04;24.10;99.90
25300;DHT22;13241;51.208;4.432;2022-07-25T02:25:31;24.20;99.90
25300;DHT22;13241;51.208;4.432;2022-07-25T02:27:59;24.00;99.90
25300;DHT22;13241;51.208;4.432;2022-07-25T02:30:26;24.00;99.90
25300;DHT22;13241;51.208;4.432;2022-07-25T02:32:53;24.00;99.90
25300;DHT22;13241;51.208;4.432;2022-07-25T02:35:20;23.80;99.90
25300;DHT22;13241;51.208;4.432;2022-07-25T02:37:47;23.90;99.90
25300;DHT22;13241;51.208;4.432;2022-07-25T02:40:14;23.90;99.90
25300;DHT22;13241;51.208;4.432;2022-07-25T02:42:41;23.90;99.90
25300;DHT22;13241;51.208;4.432;2022-07-25T02:45:08;23.90;99.90
25300;DHT22;13241;51.208;4.432;2022-07-25T02:47:37;23.90;99.90
25300;DHT22;13241;51.208;4.432;2022-07-25T02:50:05;23.90;99.90
25300;DHT22;13241;51.208;4.432;2022-07-25T02:52:34;23.90;99.90
25300;DHT22;13241;51.208;4.432;2022-07-25T02:55:00;23.80;99.90
25300;DHT22;13241;51.208;4.432;2022-07-25T02:57:36;23.90;99.90
25300;DHT22;13241;51.208;4.432;2022-07-25T03:00:04;23.90;99.90
25300;DHT22;13241;51.208;4.432;2022-07-25T03:02:31;23.90;99.90
25300;DHT22;13241;51.208;4.432;2022-07-25T03:04:58;24.10;99.90
25300;DHT22;13241;51.208;4.432;2022-07-25T03:07:25;24.10;99.90
25300;DHT22;13241;51.208;4.432;2022-07-25T03:09:52;24.00;99.90
25300;DHT22;13241;51.208;4.432;2022-07-25T03:12:19;23.90;99.90
25300;DHT22;13241;51.208;4.432;2022-07-25T03:14:45;23.90;99.90
25300;DHT22;13241;51.208;4.432;2022-07-25T03:17:12;23.70;99.90
25300;DHT22;13241;51.208;4.432;2022-07-25T03:19:39;23.80;99.90
25300;DHT22;13241;51.208;4.432;2022-07-25T03:22:06;23.70;99.90
25300;DHT22;13241;51.208;4.432;2022-07-25T03:24:33;23.80;99.90
25300;DHT22;13241;51.208;4.432;2022-07-25T03:27:00;23.80;99.90
25300;DHT22;13241;51.208;4.432;2022-07-25T03:29:27;23.80;99.90
25300;DHT22;13241;51.208;4.432;2022-07-25T03:31:54;23.90;99.90
25300;DHT22;13241;51.208;4.432;2022-07-25T03:34:21;23.90;99.90
25300;DHT22;13241;51.208;4.432;2022-07-25T03:36:48;23.90;99.90
25300;DHT22;13241;51.208;4.432;2022-07-25T03:39:15;23.90;99.90
25300;DHT22;13241;51.208;4.432;2022-07-25T03:41:42;23.90;99.90
25300;DHT22;13241;51.208;4.432;2022-07-25T03:44:10;23.90;99.90
25300;DHT22;13241;51.208;4.432;2022-07-25T03:46:37;23.80;99.90
25300;DHT22;13241;51.208;4.432;2022-07-25T03:49:04;23.80;99.90
25300;DHT22;13241;51.208;4.432;2022-07-25T03:51:31;23.80;99.90
25300;DHT22;13241;51.208;4.432;2022-07-25T03:53:58;23.80;99.90
25300;DHT22;13241;51.208;4.432;2022-07-25T03:56:29;23.70;99.90
25300;DHT22;13241;51.208;4.432;2022-07-25T03:58:56;23.70;99.90
25300;DHT22;13241;51.208;4.432;2022-07-25T04:01:24;23.70;99.90
25300;DHT22;13241;51.208;4.432;2022-07-25T04:03:52;23.60;99.90
25300;DHT22;13241;51.208;4.432;2022-07-25T04:06:19;23.60;99.90
25300;DHT22;13241;51.208;4.432;2022-07-25T04:08:46;23.60;99.90
25300;DHT22;13241;51.208;4.432;2022-07-25T04:11:13;23.50;99.90
25300;DHT22;13241;51.208;4.432;2022-07-25T04:13:40;23.50;99.90
25300;DHT22;13241;51.208;4.432;2022-07-25T04:16:08;23.40;99.90
25300;DHT22;13241;51.208;4.432;2022-07-25T04:18:44;23.40;99.90
25300;DHT22;13241;51.208;4.432;2022-07-25T04:21:11;23.30;99.90
25300;DHT22;13241;51.208;4.432;2022-07-25T04:23:37;23.40;99.90
25300;DHT22;13241;51.208;4.432;2022-07-25T04:26:04;23.30;99.90
25300;DHT22;13241;51.208;4.432;2022-07-25T04:28:31;23.30;99.90
25300;DHT22;13241;51.208;4.432;2022-07-25T04:30:58;23.10;99.90
25300;DHT22;13241;51.208;4.432;2022-07-25T04:33:26;23.20;99.90
25300;DHT22;13241;51.208;4.432;2022-07-25T04:35:53;23.20;99.90
25300;DHT22;13241;51.208;4.432;2022-07-25T04:38:20;23.20;99.90
25300;DHT22;13241;51.208;4.432;2022-07-25T04:40:47;23.20;99.90
25300;DHT22;13241;51.208;4.432;2022-07-25T04:43:14;23.30;99.90
25300;DHT22;13241;51.208;4.432;2022-07-25T04:45:41;23.30;99.90
25300;DHT22;13241;51.208;4.432;2022-07-25T04:48:07;23.20;99.90
25300;DHT22;13241;51.208;4.432;2022-07-25T04:50:35;23.30;99.90
25300;DHT22;13241;51.208;4.432;2022-07-25T04:53:02;23.30;99.90
25300;DHT22;13241;51.208;4.432;2022-07-25T04:55:29;23.20;99.90
25300;DHT22;13241;51.208;4.432;2022-07-25T04:57:55;23.20;99.90
25300;DHT22;13241;51.208;4.432;2022-07-25T05:00:22;23.20;99.90
25300;DHT22;13241;51.208;4.432;2022-07-25T05:02:50;23.10;99.90
25300;DHT22;13241;51.208;4.432;2022-07-25T05:05:18;23.10;99.90
25300;DHT22;13241;51.208;4.432;2022-07-25T05:07:48;23.10;99.90
25300;DHT22;13241;51.208;4.432;2022-07-25T05:10:16;23.10;99.90
25300;DHT22;13241;51.208;4.432;2022-07-25T05:12:43;23.10;99.90
25300;DHT22;13241;51.208;4.432;2022-07-25T05:15:10;23.00;99.90
25300;DHT22;13241;51.208;4.432;2022-07-25T05:17:37;23.00;99.90
25300;DHT22;13241;51.208;4.432;2022-07-25T05:20:04;23.00;99.90
25300;DHT22;13241;51.208;4.432;2022-07-25T05:22:31;22.90;99.90
25300;DHT22;13241;51.208;4.432;2022-07-25T05:24:58;23.00;99.90
25300;DHT22;13241;51.208;4.432;2022-07-25T05:27:27;23.00;99.90
25300;DHT22;13241;51.208;4.432;2022-07-25T05:29:54;23.10;99.90
25300;DHT22;13241;51.208;4.432;2022-07-25T05:32:21;23.10;99.90
25300;DHT22;13241;51.208;4.432;2022-07-25T05:34:48;23.10;99.90
25300;DHT22;13241;51.208;4.432;2022-07-25T05:37:15;23.10;99.90
25300;DHT22;13241;51.208;4.432;2022-07-25T05:39:42;23.10;99.90
25300;DHT22;13241;51.208;4.432;2022-07-25T05:42:09;23.30;99.90
25300;DHT22;13241;51.208;4.432;2022-07-25T05:44:36;23.30;99.90
25300;DHT22;13241;51.208;4.432;2022-07-25T05:47:07;23.30;99.90
25300;DHT22;13241;51.208;4.432;2022-07-25T05:49:34;23.30;99.90
25300;DHT22;13241;51.208;4.432;2022-07-25T05:52:01;23.20;99.90
25300;DHT22;13241;51.208;4.432;2022-07-25T05:54:36;23.20;99.90
25300;DHT22;13241;51.208;4.432;2022-07-25T05:57:03;23.30;99.90
25300;DHT22;13241;51.208;4.432;2022-07-25T05:59:30;23.30;99.90
25300;DHT22;13241;51.208;4.432;2022-07-25T06:01:57;23.30;99.90
25300;DHT22;13241;51.208;4.432;2022-07-25T06:04:24;23.30;99.90
25300;DHT22;13241;51.208;4.432;2022-07-25T06:06:53;23.30;99.90
25300;DHT22;13241;51.208;4.432;2022-07-25T06:09:20;23.10;99.90
25300;DHT22;13241;51.208;4.432;2022-07-25T06:11:48;23.20;99.90
25300;DHT22;13241;51.208;4.432;2022-07-25T06:14:27;23.20;99.90
25300;DHT22;13241;51.208;4.432;2022-07-25T06:16:54;23.20;99.90
25300;DHT22;13241;51.208;4.432;2022-07-25T06:19:21;23.20;99.90
25300;DHT22;13241;51.208;4.432;2022-07-25T06:21:48;23.10;99.90
25300;DHT22;13241;51.208;4.432;2022-07-25T06:24:16;23.20;99.90
25300;DHT22;13241;51.208;4.432;2022-07-25T06:26:43;23.10;99.90
25300;DHT22;13241;51.208;4.432;2022-07-25T06:29:10;23.20;99.90
25300;DHT22;13241;51.208;4.432;2022-07-25T06:31:37;23.20;99.90
25300;DHT22;13241;51.208;4.432;2022-07-25T06:34:04;23.30;99.90
25300;DHT22;13241;51.208;4.432;2022-07-25T06:36:31;23.40;99.90
25300;DHT22;13241;51.208;4.432;2022-07-25T06:38:59;23.50;99.90
25300;DHT22;13241;51.208;4.432;2022-07-25T06:41:26;23.70;99.90
25300;DHT22;13241;51.208;4.432;2022-07-25T06:43:53;23.60;99.90
25300;DHT22;13241;51.208;4.432;2022-07-25T06:46:20;23.60;99.90
25300;DHT22;13241;51.208;4.432;2022-07-25T06:48:47;23.50;99.90
25300;DHT22;13241;51.208;4.432;2022-07-25T06:51:14;23.50;99.90
25300;DHT22;13241;51.208;4.432;2022-07-25T06:53:41;23.50;99.90
25300;DHT22;13241;51.208;4.432;2022-07-25T06:56:08;23.60;99.90
25300;DHT22;13241;51.208;4.432;2022-07-25T06:58:38;23.70;99.90
25300;DHT22;13241;51.208;4.432;2022-07-25T07:01:06;24.00;99.90
25300;DHT22;13241;51.208;4.432;2022-07-25T07:03:33;24.40;99.90
25300;DHT22;13241;51.208;4.432;2022-07-25T07:06:04;24.60;99.90
25300;DHT22;13241;51.208;4.432;2022-07-25T07:08:31;24.60;99.90
25300;DHT22;13241;51.208;4.432;2022-07-25T07:10:59;24.60;99.90
25300;DHT22;13241;51.208;4.432;2022-07-25T07:13:26;24.80;99.90
25300;DHT22;13241;51.208;4.432;2022-07-25T07:15:53;25.00;99.90
25300;DHT22;13241;51.208;4.432;2022-07-25T07:18:21;25.20;99.90
25300;DHT22;13241;51.208;4.432;2022-07-25T07:20:48;25.50;99.90
25300;DHT22;13241;51.208;4.432;2022-07-25T07:23:16;25.60;99.90
25300;DHT22;13241;51.208;4.432;2022-07-25T07:25:44;25.60;99.90
25300;DHT22;13241;51.208;4.432;2022-07-25T07:28:12;25.80;99.90
25300;DHT22;13241;51.208;4.432;2022-07-25T07:30:39;25.60;99.90
25300;DHT22;13241;51.208;4.432;2022-07-25T07:33:26;25.50;99.90
25300;DHT22;13241;51.208;4.432;2022-07-25T07:35:53;25.20;99.90
25300;DHT22;13241;51.208;4.432;2022-07-25T07:38:23;25.00;99.90
25300;DHT22;13241;51.208;4.432;2022-07-25T07:40:51;24.70;99.90
25300;DHT22;13241;51.208;4.432;2022-07-25T07:43:19;24.60;99.90
25300;DHT22;13241;51.208;4.432;2022-07-25T07:45:48;24.40;99.90
25300;DHT22;13241;51.208;4.432;2022-07-25T07:48:15;24.10;99.90
25300;DHT22;13241;51.208;4.432;2022-07-25T07:50:42;24.00;99.90
25300;DHT22;13241;51.208;4.432;2022-07-25T07:53:09;24.20;99.90
25300;DHT22;13241;51.208;4.432;2022-07-25T07:55:36;24.60;99.90
25300;DHT22;13241;51.208;4.432;2022-07-25T07:58:16;25.00;99.90
25300;DHT22;13241;51.208;4.432;2022-07-25T08:00:44;25.30;99.90
25300;DHT22;13241;51.208;4.432;2022-07-25T08:03:12;25.60;99.90
25300;DHT22;13241;51.208;4.432;2022-07-25T08:05:45;25.70;99.90
25300;DHT22;13241;51.208;4.432;2022-07-25T08:08:13;26.10;99.90
25300;DHT22;13241;51.208;4.432;2022-07-25T08:10:43;26.30;99.90
25300;DHT22;13241;51.208;4.432;2022-07-25T08:15:41;27.00;99.90
25300;DHT22;13241;51.208;4.432;2022-07-25T08:18:08;27.10;99.90
25300;DHT22;13241;51.208;4.432;2022-07-25T08:20:45;27.30;99.90
25300;DHT22;13241;51.208;4.432;2022-07-25T08:23:15;27.40;99.90
25300;DHT22;13241;51.208;4.432;2022-07-25T08:25:43;27.50;99.90
25300;DHT22;13241;51.208;4.432;2022-07-25T08:28:11;27.60;99.90
25300;DHT22;13241;51.208;4.432;2022-07-25T08:30:39;27.50;99.90
25300;DHT22;13241;51.208;4.432;2022-07-25T08:33:08;26.90;99.90
25300;DHT22;13241;51.208;4.432;2022-07-25T08:35:36;26.50;99.90
25300;DHT22;13241;51.208;4.432;2022-07-25T08:38:04;25.90;99.90
25300;DHT22;13241;51.208;4.432;2022-07-25T08:40:32;26.10;99.90
25300;DHT22;13241;51.208;4.432;2022-07-25T08:43:01;26.40;99.90
25300;DHT22;13241;51.208;4.432;2022-07-25T08:45:31;26.50;99.90
25300;DHT22;13241;51.208;4.432;2022-07-25T08:47:59;26.90;99.90
25300;DHT22;13241;51.208;4.432;2022-07-25T08:50:27;27.00;99.90
25300;DHT22;13241;51.208;4.432;2022-07-25T08:52:55;27.20;99.90
25300;DHT22;13241;51.208;4.432;2022-07-25T08:55:42;27.50;99.90
25300;DHT22;13241;51.208;4.432;2022-07-25T08:58:14;27.70;99.90
25300;DHT22;13241;51.208;4.432;2022-07-25T09:00:42;27.60;99.90
25300;DHT22;13241;51.208;4.432;2022-07-25T09:03:09;27.70;99.90
25300;DHT22;13241;51.208;4.432;2022-07-25T09:05:37;28.00;99.90
25300;DHT22;13241;51.208;4.432;2022-07-25T09:08:15;28.20;99.90
25300;DHT22;13241;51.208;4.432;2022-07-25T09:10:48;28.70;99.90
25300;DHT22;13241;51.208;4.432;2022-07-25T09:13:18;28.90;99.90
25300;DHT22;13241;51.208;4.432;2022-07-25T09:18:17;28.90;99.90
25300;DHT22;13241;51.208;4.432;2022-07-25T09:20:50;29.10;99.90
25300;DHT22;13241;51.208;4.432;2022-07-25T09:23:36;29.00;99.90
25300;DHT22;13241;51.208;4.432;2022-07-25T09:26:13;28.80;99.90
25300;DHT22;13241;51.208;4.432;2022-07-25T09:31:08;28.80;99.90
25300;DHT22;13241;51.208;4.432;2022-07-25T09:36:11;29.00;99.90
25300;DHT22;13241;51.208;4.432;2022-07-25T09:38:38;29.00;99.90
25300;DHT22;13241;51.208;4.432;2022-07-25T09:41:05;28.80;99.90
25300;DHT22;13241;51.208;4.432;2022-07-25T09:43:41;28.80;99.90
25300;DHT22;13241;51.208;4.432;2022-07-25T09:46:09;29.10;99.90
25300;DHT22;13241;51.208;4.432;2022-07-25T09:48:38;29.40;99.90
25300;DHT22;13241;51.208;4.432;2022-07-25T09:51:06;29.40;99.90
25300;DHT22;13241;51.208;4.432;2022-07-25T09:53:33;29.40;99.90
25300;DHT22;13241;51.208;4.432;2022-07-25T09:56:00;29.50;99.90
25300;DHT22;13241;51.208;4.432;2022-07-25T09:58:27;29.70;99.90
25300;DHT22;13241;51.208;4.432;2022-07-25T10:01:04;29.80;99.90
25300;DHT22;13241;51.208;4.432;2022-07-25T10:03:51;29.60;99.90
25300;DHT22;13241;51.208;4.432;2022-07-25T10:06:29;29.40;99.90
25300;DHT22;13241;51.208;4.432;2022-07-25T10:09:00;29.30;99.90
25300;DHT22;13241;51.208;4.432;2022-07-25T10:11:27;29.10;99.90
25300;DHT22;13241;51.208;4.432;2022-07-25T10:13:55;29.10;99.90
25300;DHT22;13241;51.208;4.432;2022-07-25T10:16:24;29.00;99.90
25300;DHT22;13241;51.208;4.432;2022-07-25T10:18:53;28.80;99.90
25300;DHT22;13241;51.208;4.432;2022-07-25T10:21:22;28.80;99.90
25300;DHT22;13241;51.208;4.432;2022-07-25T10:26:23;28.30;99.90
25300;DHT22;13241;51.208;4.432;2022-07-25T10:28:52;27.90;99.90
25300;DHT22;13241;51.208;4.432;2022-07-25T10:31:25;27.60;99.90
25300;DHT22;13241;51.208;4.432;2022-07-25T10:33:59;27.20;99.90
25300;DHT22;13241;51.208;4.432;2022-07-25T10:36:39;26.90;99.90
25300;DHT22;13241;51.208;4.432;2022-07-25T10:39:10;26.70;99.90
25300;DHT22;13241;51.208;4.432;2022-07-25T10:41:42;26.40;99.90
25300;DHT22;13241;51.208;4.432;2022-07-25T10:44:14;26.50;99.90
25300;DHT22;13241;51.208;4.432;2022-07-25T10:46:42;26.80;99.90
25300;DHT22;13241;51.208;4.432;2022-07-25T10:49:24;26.90;99.90
25300;DHT22;13241;51.208;4.432;2022-07-25T10:51:59;26.90;99.90
25300;DHT22;13241;51.208;4.432;2022-07-25T10:54:35;26.80;99.90
25300;DHT22;13241;51.208;4.432;2022-07-25T10:57:04;26.70;99.90
25300;DHT22;13241;51.208;4.432;2022-07-25T10:59:37;26.50;99.90
25300;DHT22;13241;51.208;4.432;2022-07-25T11:02:06;26.40;99.90
25300;DHT22;13241;51.208;4.432;2022-07-25T11:04:36;26.30;99.90
25300;DHT22;13241;51.208;4.432;2022-07-25T11:07:07;26.30;99.90
25300;DHT22;13241;51.208;4.432;2022-07-25T11:09:35;26.30;99.90
25300;DHT22;13241;51.208;4.432;2022-07-25T11:12:02;26.00;99.90
25300;DHT22;13241;51.208;4.432;2022-07-25T11:14:33;25.90;99.90
25300;DHT22;13241;51.208;4.432;2022-07-25T11:19:36;25.70;99.90
25300;DHT22;13241;51.208;4.432;2022-07-25T11:22:03;25.80;99.90
25300;DHT22;13241;51.208;4.432;2022-07-25T11:24:41;26.00;99.90
25300;DHT22;13241;51.208;4.432;2022-07-25T11:27:19;26.20;99.90
25300;DHT22;13241;51.208;4.432;2022-07-25T11:29:46;26.20;99.90
25300;DHT22;13241;51.208;4.432;2022-07-25T11:32:13;26.10;99.90
25300;DHT22;13241;51.208;4.432;2022-07-25T11:34:47;26.10;99.90
25300;DHT22;13241;51.208;4.432;2022-07-25T11:37:16;26.00;99.90
25300;DHT22;13241;51.208;4.432;2022-07-25T11:39:45;25.70;99.90
25300;DHT22;13241;51.208;4.432;2022-07-25T11:42:15;25.60;99.90
25300;DHT22;13241;51.208;4.432;2022-07-25T11:44:45;25.60;99.90
25300;DHT22;13241;51.208;4.432;2022-07-25T11:47:31;25.80;99.90
25300;DHT22;13241;51.208;4.432;2022-07-25T11:50:03;26.20;99.90
25300;DHT22;13241;51.208;4.432;2022-07-25T11:52:33;26.60;99.90
25300;DHT22;13241;51.208;4.432;2022-07-25T11:57:29;27.60;99.90
25300;DHT22;13241;51.208;4.432;2022-07-25T11:59:58;28.20;99.90
25300;DHT22;13241;51.208;4.432;2022-07-25T12:02:30;28.10;99.90
25300;DHT22;13241;51.208;4.432;2022-07-25T12:07:46;27.60;99.90
25300;DHT22;13241;51.208;4.432;2022-07-25T12:10:18;27.70;99.90
25300;DHT22;13241;51.208;4.432;2022-07-25T12:12:51;27.90;99.90
25300;DHT22;13241;51.208;4.432;2022-07-25T12:15:38;28.00;99.90
25300;DHT22;13241;51.208;4.432;2022-07-25T12:18:07;27.90;99.90
25300;DHT22;13241;51.208;4.432;2022-07-25T12:20:40;27.80;99.90
25300;DHT22;13241;51.208;4.432;2022-07-25T12:23:10;27.60;99.90
25300;DHT22;13241;51.208;4.432;2022-07-25T12:25:39;27.50;99.90
25300;DHT22;13241;51.208;4.432;2022-07-25T12:28:06;27.80;99.90
25300;DHT22;13241;51.208;4.432;2022-07-25T12:30:35;28.00;99.90
25300;DHT22;13241;51.208;4.432;2022-07-25T12:33:04;28.10;99.90
25300;DHT22;13241;51.208;4.432;2022-07-25T12:35:32;28.30;99.90
25300;DHT22;13241;51.208;4.432;2022-07-25T12:37:59;28.40;99.90
25300;DHT22;13241;51.208;4.432;2022-07-25T12:40:26;28.20;99.90
25300;DHT22;13241;51.208;4.432;2022-07-25T12:42:53;28.00;99.90
25300;DHT22;13241;51.208;4.432;2022-07-25T12:45:20;27.90;99.90
25300;DHT22;13241;51.208;4.432;2022-07-25T12:47:49;28.00;99.90
25300;DHT22;13241;51.208;4.432;2022-07-25T12:50:16;28.20;99.90
25300;DHT22;13241;51.208;4.432;2022-07-25T12:52:44;28.30;99.90
25300;DHT22;13241;51.208;4.432;2022-07-25T12:55:14;28.20;99.90
25300;DHT22;13241;51.208;4.432;2022-07-25T12:57:41;28.10;99.90
25300;DHT22;13241;51.208;4.432;2022-07-25T13:00:11;28.00;99.90
25300;DHT22;13241;51.208;4.432;2022-07-25T13:02:39;27.90;99.90
25300;DHT22;13241;51.208;4.432;2022-07-25T13:05:06;27.90;99.90
25300;DHT22;13241;51.208;4.432;2022-07-25T13:07:33;27.90;99.90
25300;DHT22;13241;51.208;4.432;2022-07-25T13:10:01;28.20;99.90
25300;DHT22;13241;51.208;4.432;2022-07-25T13:12:29;28.40;99.90
25300;DHT22;13241;51.208;4.432;2022-07-25T13:14:56;28.40;99.90
25300;DHT22;13241;51.208;4.432;2022-07-25T13:17:23;28.20;99.90
25300;DHT22;13241;51.208;4.432;2022-07-25T13:19:54;28.30;99.90
25300;DHT22;13241;51.208;4.432;2022-07-25T13:22:23;28.40;99.90
25300;DHT22;13241;51.208;4.432;2022-07-25T13:24:51;28.60;99.90
25300;DHT22;13241;51.208;4.432;2022-07-25T13:27:19;28.40;99.90
25300;DHT22;13241;51.208;4.432;2022-07-25T13:29:47;28.20;99.90
25300;DHT22;13241;51.208;4.432;2022-07-25T13:32:21;28.10;99.90
25300;DHT22;13241;51.208;4.432;2022-07-25T13:34:47;27.90;99.90
25300;DHT22;13241;51.208;4.432;2022-07-25T13:37:14;27.90;99.90
25300;DHT22;13241;51.208;4.432;2022-07-25T13:39:41;28.30;99.30
25300;DHT22;13241;51.208;4.432;2022-07-25T13:42:08;28.40;99.20
25300;DHT22;13241;51.208;4.432;2022-07-25T13:44:35;28.10;99.50
25300;DHT22;13241;51.208;4.432;2022-07-25T13:47:02;27.90;99.50
25300;DHT22;13241;51.208;4.432;2022-07-25T13:49:30;28.00;99.90
25300;DHT22;13241;51.208;4.432;2022-07-25T13:51:57;28.90;99.10
25300;DHT22;13241;51.208;4.432;2022-07-25T13:54:24;30.00;98.00
25300;DHT22;13241;51.208;4.432;2022-07-25T13:56:57;30.70;96.90
25300;DHT22;13241;51.208;4.432;2022-07-25T13:59:24;30.20;96.80
25300;DHT22;13241;51.208;4.432;2022-07-25T14:01:51;30.10;97.20
25300;DHT22;13241;51.208;4.432;2022-07-25T14:04:18;29.90;96.80
25300;DHT22;13241;51.208;4.432;2022-07-25T14:06:45;29.60;96.70
25300;DHT22;13241;51.208;4.432;2022-07-25T14:09:19;29.60;97.30
25300;DHT22;13241;51.208;4.432;2022-07-25T14:11:46;30.40;95.90
25300;DHT22;13241;51.208;4.432;2022-07-25T14:14:14;31.00;95.40
25300;DHT22;13241;51.208;4.432;2022-07-25T14:16:40;31.00;94.60
25300;DHT22;13241;51.208;4.432;2022-07-25T14:19:08;30.30;94.50
25300;DHT22;13241;51.208;4.432;2022-07-25T14:21:36;29.70;95.00
25300;DHT22;13241;51.208;4.432;2022-07-25T14:24:03;30.50;95.10
25300;DHT22;13241;51.208;4.432;2022-07-25T14:26:32;30.80;94.00
25300;DHT22;13241;51.208;4.432;2022-07-25T14:29:00;30.60;93.90
25300;DHT22;13241;51.208;4.432;2022-07-25T14:31:27;30.40;94.00
25300;DHT22;13241;51.208;4.432;2022-07-25T14:33:53;30.80;93.20
25300;DHT22;13241;51.208;4.432;2022-07-25T14:36:20;30.60;93.30
25300;DHT22;13241;51.208;4.432;2022-07-25T14:38:47;30.00;93.70
25300;DHT22;13241;51.208;4.432;2022-07-25T14:41:14;29.70;94.30
25300;DHT22;13241;51.208;4.432;2022-07-25T14:43:42;31.10;93.70
25300;DHT22;13241;51.208;4.432;2022-07-25T14:46:09;31.90;92.40
25300;DHT22;13241;51.208;4.432;2022-07-25T14:48:37;31.50;91.90
25300;DHT22;13241;51.208;4.432;2022-07-25T14:51:05;30.50;92.60
25300;DHT22;13241;51.208;4.432;2022-07-25T14:53:33;29.60;93.70
25300;DHT22;13241;51.208;4.432;2022-07-25T14:56:02;28.80;94.50
25300;DHT22;13241;51.208;4.432;2022-07-25T14:58:29;28.30;95.70
25300;DHT22;13241;51.208;4.432;2022-07-25T15:00:56;28.20;95.90
25300;DHT22;13241;51.208;4.432;2022-07-25T15:03:24;28.00;96.20
25300;DHT22;13241;51.208;4.432;2022-07-25T15:05:50;27.70;96.70
25300;DHT22;13241;51.208;4.432;2022-07-25T15:08:17;27.80;96.70
25300;DHT22;13241;51.208;4.432;2022-07-25T15:10:44;28.00;96.20
25300;DHT22;13241;51.208;4.432;2022-07-25T15:13:11;28.00;96.40
25300;DHT22;13241;51.208;4.432;2022-07-25T15:15:59;27.90;96.40
25300;DHT22;13241;51.208;4.432;2022-07-25T15:18:26;27.80;96.50
25300;DHT22;13241;51.208;4.432;2022-07-25T15:20:54;27.80;96.20
25300;DHT22;13241;51.208;4.432;2022-07-25T15:23:21;27.70;96.10
25300;DHT22;13241;51.208;4.432;2022-07-25T15:25:52;27.50;97.00
25300;DHT22;13241;51.208;4.432;2022-07-25T15:28:36;27.40;96.90
25300;DHT22;13241;51.208;4.432;2022-07-25T15:31:04;27.40;97.10
25300;DHT22;13241;51.208;4.432;2022-07-25T15:33:32;27.60;96.90
25300;DHT22;13241;51.208;4.432;2022-07-25T15:35:59;28.00;96.30
25300;DHT22;13241;51.208;4.432;2022-07-25T15:38:27;28.10;96.20
25300;DHT22;13241;51.208;4.432;2022-07-25T15:40:54;28.60;95.70
25300;DHT22;13241;51.208;4.432;2022-07-25T15:43:21;28.90;95.60
25300;DHT22;13241;51.208;4.432;2022-07-25T15:45:49;29.30;95.00
25300;DHT22;13241;51.208;4.432;2022-07-25T15:48:16;30.20;94.10
25300;DHT22;13241;51.208;4.432;2022-07-25T15:50:45;29.90;93.00
25300;DHT22;13241;51.208;4.432;2022-07-25T15:53:12;29.00;93.80
25300;DHT22;13241;51.208;4.432;2022-07-25T15:55:41;28.40;95.00
25300;DHT22;13241;51.208;4.432;2022-07-25T15:58:09;28.20;95.50